Observation data for Northwest Lubbock on 05/24/2020      Previous  Date  Next       Current Mesonet Observations  Soil Data  Daily Summary Page  Observations in Plain Language
KLBW 240500Z 15012G18KT 21/14 A2986 RMK A01 T02100139  RH  067%=      5-min Rain = 0
KLBW 240505Z 15011G17KT 21/14 A2986 RMK A01 T02060140  RH  069%=      5-min Rain = 0
KLBW 240510Z 15008G13KT 20/14 A2986 RMK A01 T02020141  RH  071%=      5-min Rain = 0
KLBW 240515Z 14009G15KT 20/14 A2986 RMK A01 T01990142  RH  073%=      5-min Rain = 0
KLBW 240520Z 15009G15KT 20/14 A2986 RMK A01 T01980142  RH  073%=      5-min Rain = 0
KLBW 240525Z 15010G16KT 20/14 A2986 RMK A01 T01970142  RH  074%=      5-min Rain = 0
KLBW 240530Z 15012KT 20/14 A2986 RMK A01 T01970141  RH  073%=      5-min Rain = 0
KLBW 240535Z 15011G16KT 20/14 A2987 RMK A01 T01970141  RH  073%=      5-min Rain = 0
KLBW 240540Z 14011G17KT 20/14 A2987 RMK A01 T01950140  RH  074%=      5-min Rain = 0
KLBW 240545Z 13011G18KT 19/14 A2987 RMK A01 T01910140  RH  075%=      5-min Rain = 0
KLBW 240550Z 14010G16KT 19/14 A2988 RMK A01 T01870140  RH  077%=      5-min Rain = 0
KLBW 240555Z 15010G15KT 19/14 A2988 RMK A01 T01850139  RH  078%=      5-min Rain = 0
KLBW 240600Z 15010G16KT 18/14 A2988 RMK A01 T01830137  RH  077%=      5-min Rain = 0
KLBW 240605Z 15011G16KT 18/14 A2987 RMK A01 T01820135  RH  077%=      5-min Rain = 0
KLBW 240610Z 16010G16KT 18/14 A2988 RMK A01 T01800135  RH  078%=      5-min Rain = 0
KLBW 240615Z 16010G16KT 18/13 A2987 RMK A01 T01780132  RH  078%=      5-min Rain = 0
KLBW 240620Z 15010G15KT 18/13 A2987 RMK A01 T01780129  RH  076%=      5-min Rain = 0
KLBW 240625Z 15012G18KT 18/13 A2987 RMK A01 T01780127  RH  075%=      5-min Rain = 0
KLBW 240630Z 16012G19KT 18/13 A2987 RMK A01 T01770127  RH  075%=      5-min Rain = 0
KLBW 240635Z 15009KT 18/13 A2987 RMK A01 T01760127  RH  076%=      5-min Rain = 0
KLBW 240640Z 15011KT 18/13 A2987 RMK A01 T01750127  RH  076%=      5-min Rain = 0
KLBW 240645Z 15011G16KT 18/13 A2987 RMK A01 T01760127  RH  076%=      5-min Rain = 0
KLBW 240650Z 15011G16KT 18/13 A2987 RMK A01 T01750127  RH  076%=      5-min Rain = 0
KLBW 240655Z 16011G16KT 18/13 A2987 RMK A01 T01750127  RH  076%=      5-min Rain = 0
KLBW 240700Z 16010KT 17/13 A2987 RMK A01 T01740127  RH  077%=      5-min Rain = 0
KLBW 240705Z 16011G16KT 18/13 A2987 RMK A01 T01750126  RH  076%=      5-min Rain = 0
KLBW 240710Z 16010KT 18/13 A2987 RMK A01 T01750126  RH  076%=      5-min Rain = 0
KLBW 240715Z 16010G15KT 18/13 A2987 RMK A01 T01750126  RH  076%=      5-min Rain = 0
KLBW 240720Z 16010KT 18/13 A2986 RMK A01 T01750126  RH  076%=      5-min Rain = 0
KLBW 240725Z 16010G17KT 17/13 A2986 RMK A01 T01740125  RH  076%=      5-min Rain = 0
KLBW 240730Z 16009KT 17/13 A2986 RMK A01 T01730126  RH  077%=      5-min Rain = 0
KLBW 240735Z 16010G16KT 17/13 A2986 RMK A01 T01730126  RH  077%=      5-min Rain = 0
KLBW 240740Z 16009KT 17/13 A2986 RMK A01 T01720126  RH  077%=      5-min Rain = 0
KLBW 240745Z 15009KT 17/13 A2986 RMK A01 T01710125  RH  077%=      5-min Rain = 0
KLBW 240750Z 15009G14KT 17/12 A2986 RMK A01 T01720123  RH  076%=      5-min Rain = 0
KLBW 240755Z 15010G15KT 17/12 A2986 RMK A01 T01730122  RH  075%=      5-min Rain = 0
KLBW 240800Z 15010G15KT 17/12 A2986 RMK A01 T01720122  RH  075%=      5-min Rain = 0
KLBW 240805Z 15011G16KT 17/12 A2986 RMK A01 T01720121  RH  075%=      5-min Rain = 0
KLBW 240810Z 15010G15KT 17/12 A2986 RMK A01 T01710121  RH  075%=      5-min Rain = 0
KLBW 240815Z 15009G14KT 17/12 A2986 RMK A01 T01720121  RH  075%=      5-min Rain = 0
KLBW 240820Z 15009KT 17/12 A2986 RMK A01 T01700121  RH  075%=      5-min Rain = 0
KLBW 240825Z 15010KT 17/12 A2986 RMK A01 T01710120  RH  075%=      5-min Rain = 0
KLBW 240830Z 15010G15KT 17/12 A2985 RMK A01 T01710119  RH  074%=      5-min Rain = 0
KLBW 240835Z 14009G14KT 17/12 A2986 RMK A01 T01710120  RH  075%=      5-min Rain = 0
KLBW 240840Z 14008KT 17/12 A2985 RMK A01 T01700120  RH  075%=      5-min Rain = 0
KLBW 240845Z 14009KT 17/12 A2985 RMK A01 T01690119  RH  075%=      5-min Rain = 0
KLBW 240850Z 14009KT 17/12 A2986 RMK A01 T01680120  RH  076%=      5-min Rain = 0
KLBW 240855Z 14009KT 17/12 A2986 RMK A01 T01680119  RH  076%=      5-min Rain = 0
KLBW 240900Z 14009KT 17/12 A2985 RMK A01 T01670119  RH  076%=      5-min Rain = 0
KLBW 240905Z 14010KT 17/12 A2986 RMK A01 T01690118  RH  075%=      5-min Rain = 0
KLBW 240910Z 14009KT 17/12 A2986 RMK A01 T01700117  RH  074%=      5-min Rain = 0
KLBW 240915Z 15008KT 17/12 A2986 RMK A01 T01690117  RH  074%=      5-min Rain = 0
KLBW 240920Z 15008G13KT 17/12 A2986 RMK A01 T01690117  RH  074%=      5-min Rain = 0
KLBW 240925Z 15008G14KT 17/12 A2986 RMK A01 T01680117  RH  074%=      5-min Rain = 0
KLBW 240930Z 15008KT 17/12 A2986 RMK A01 T01680117  RH  074%=      5-min Rain = 0
KLBW 240935Z 14007KT 17/12 A2986 RMK A01 T01670117  RH  075%=      5-min Rain = 0
KLBW 240940Z 15009G14KT 17/12 A2986 RMK A01 T01680115  RH  074%=      5-min Rain = 0
KLBW 240945Z 15008G13KT 17/11 A2985 RMK A01 T01690114  RH  073%=      5-min Rain = 0
KLBW 240950Z 15008KT 17/11 A2986 RMK A01 T01700113  RH  072%=      5-min Rain = 0
KLBW 240955Z 14009KT 17/11 A2986 RMK A01 T01700113  RH  072%=      5-min Rain = 0
KLBW 241000Z 15009KT 17/11 A2986 RMK A01 T01710112  RH  071%=      5-min Rain = 0
KLBW 241005Z 14009KT 17/11 A2986 RMK A01 T01710112  RH  071%=      5-min Rain = 0
KLBW 241010Z 14009G14KT 17/11 A2986 RMK A01 T01700112  RH  071%=      5-min Rain = 0
KLBW 241015Z 14009G15KT 17/11 A2986 RMK A01 T01710112  RH  071%=      5-min Rain = 0
KLBW 241020Z 14009KT 17/11 A2986 RMK A01 T01700113  RH  072%=      5-min Rain = 0
KLBW 241025Z 14009G14KT 17/11 A2986 RMK A01 T01700113  RH  072%=      5-min Rain = 0
KLBW 241030Z 15009KT 17/11 A2986 RMK A01 T01700114  RH  072%=      5-min Rain = 0
KLBW 241035Z 15008G13KT 17/11 A2986 RMK A01 T01690114  RH  073%=      5-min Rain = 0
KLBW 241040Z 16007KT 17/12 A2986 RMK A01 T01690115  RH  073%=      5-min Rain = 0
KLBW 241045Z 16007KT 17/12 A2986 RMK A01 T01680115  RH  074%=      5-min Rain = 0
KLBW 241050Z 16007G12KT 17/12 A2986 RMK A01 T01690116  RH  074%=      5-min Rain = 0
KLBW 241055Z 17008KT 17/12 A2986 RMK A01 T01680116  RH  074%=      5-min Rain = 0
KLBW 241100Z 17007KT 17/12 A2986 RMK A01 T01680117  RH  074%=      5-min Rain = 0
KLBW 241105Z 16006KT 17/12 A2987 RMK A01 T01660117  RH  075%=      5-min Rain = 0
KLBW 241110Z 16005KT 16/12 A2987 RMK A01 T01640117  RH  076%=      5-min Rain = 0
KLBW 241115Z 16006KT 16/12 A2987 RMK A01 T01630117  RH  077%=      5-min Rain = 0
KLBW 241120Z 16005KT 16/12 A2987 RMK A01 T01620118  RH  078%=      5-min Rain = 0
KLBW 241125Z 16005KT 16/12 A2987 RMK A01 T01610118  RH  078%=      5-min Rain = 0
KLBW 241130Z 16005KT 16/12 A2987 RMK A01 T01610118  RH  078%=      5-min Rain = 0
KLBW 241135Z 16005KT 16/12 A2987 RMK A01 T01610119  RH  079%=      5-min Rain = 0
KLBW 241140Z 16005KT 16/12 A2986 RMK A01 T01600119  RH  079%=      5-min Rain = 0
KLBW 241145Z 16006KT 16/12 A2986 RMK A01 T01590119  RH  080%=      5-min Rain = 0
KLBW 241150Z 16007KT 16/12 A2986 RMK A01 T01610120  RH  080%=      5-min Rain = 0
KLBW 241155Z 16008KT 16/12 A2986 RMK A01 T01620120  RH  079%=      5-min Rain = 0
KLBW 241200Z 16008KT 16/12 A2986 RMK A01 T01640120  RH  078%=      5-min Rain = 0
KLBW 241205Z 16009G14KT 17/12 A2986 RMK A01 T01670119  RH  076%=      5-min Rain = 0
KLBW 241210Z 16010G16KT 17/12 A2986 RMK A01 T01700119  RH  075%=      5-min Rain = 0
KLBW 241215Z 16010KT 17/12 A2986 RMK A01 T01730120  RH  074%=      5-min Rain = 0
KLBW 241220Z 16012G17KT 18/12 A2986 RMK A01 T01750120  RH  073%=      5-min Rain = 0
KLBW 241225Z 16011G17KT 18/12 A2986 RMK A01 T01780121  RH  072%=      5-min Rain = 0
KLBW 241230Z 16011G17KT 18/12 A2986 RMK A01 T01790122  RH  072%=      5-min Rain = 0
KLBW 241235Z 16012KT 18/12 A2986 RMK A01 T01800122  RH  071%=      5-min Rain = 0
KLBW 241240Z 17011G17KT 18/12 A2986 RMK A01 T01810123  RH  071%=      5-min Rain = 0
KLBW 241245Z 16011G17KT 18/12 A2986 RMK A01 T01820123  RH  071%=      5-min Rain = 0
KLBW 241250Z 17012G17KT 18/12 A2986 RMK A01 T01830123  RH  071%=      5-min Rain = 0
KLBW 241255Z 17011KT 19/12 A2986 RMK A01 T01850124  RH  070%=      5-min Rain = 0
KLBW 241300Z 16011KT 19/12 A2986 RMK A01 T01860124  RH  070%=      5-min Rain = 0
KLBW 241305Z 17010KT 19/13 A2986 RMK A01 T01880126  RH  070%=      5-min Rain = 0
KLBW 241310Z 17011G16KT 19/13 A2986 RMK A01 T01880125  RH  069%=      5-min Rain = 0
KLBW 241315Z 17011KT 19/13 A2986 RMK A01 T01890126  RH  069%=      5-min Rain = 0
KLBW 241320Z 17009G14KT 19/13 A2986 RMK A01 T01910127  RH  069%=      5-min Rain = 0
KLBW 241325Z 17010KT 19/13 A2986 RMK A01 T01920127  RH  068%=      5-min Rain = 0
KLBW 241330Z 17011KT 19/13 A2986 RMK A01 T01920127  RH  069%=      5-min Rain = 0
KLBW 241335Z 16009KT 19/13 A2986 RMK A01 T01940129  RH  069%=      5-min Rain = 0
KLBW 241340Z 17009KT 20/13 A2986 RMK A01 T01970131  RH  068%=      5-min Rain = 0
KLBW 241345Z 16009KT 20/13 A2987 RMK A01 T01990132  RH  068%=      5-min Rain = 0
KLBW 241350Z 16010KT 20/13 A2987 RMK A01 T02000132  RH  068%=      5-min Rain = 0
KLBW 241355Z 17011KT 20/13 A2987 RMK A01 T02000133  RH  068%=      5-min Rain = 0
KLBW 241400Z 17009G14KT 20/13 A2987 RMK A01 T02010134  RH  068%=      5-min Rain = 0
KLBW 241405Z 16009KT 20/14 A2987 RMK A01 T02020135  RH  068%=      5-min Rain = 0
KLBW 241410Z 16009KT 20/14 A2987 RMK A01 T02040136  RH  068%=      5-min Rain = 0
KLBW 241415Z 17010KT 21/14 A2987 RMK A01 T02050137  RH  068%=      5-min Rain = 0
KLBW 241420Z 16011KT 20/14 A2987 RMK A01 T02040136  RH  067%=      5-min Rain = 0
KLBW 241425Z 18010KT 21/14 A2987 RMK A01 T02060138  RH  068%=      5-min Rain = 0
KLBW 241430Z 18009G14KT 21/14 A2988 RMK A01 T02090140  RH  067%=      5-min Rain = 0
KLBW 241435Z 17009KT 21/14 A2988 RMK A01 T02090140  RH  067%=      5-min Rain = 0
KLBW 241440Z 18012G17KT 21/14 A2987 RMK A01 T02090139  RH  067%=      5-min Rain = 0
KLBW 241445Z 17013KT 21/14 A2987 RMK A01 T02060139  RH  068%=      5-min Rain = 0
KLBW 241450Z 17011G16KT 21/14 A2987 RMK A01 T02080141  RH  068%=      5-min Rain = 0
KLBW 241455Z 18011G17KT 21/14 A2987 RMK A01 T02100142  RH  068%=      5-min Rain = 0
KLBW 241500Z 19010G15KT 21/14 A2987 RMK A01 T02130144  RH  068%=      5-min Rain = 0
KLBW 241505Z 18011G16KT 21/14 A2986 RMK A01 T02130144  RH  068%=      5-min Rain = 0
KLBW 241510Z 19011G16KT 21/15 A2986 RMK A01 T02140146  RH  068%=      5-min Rain = 0
KLBW 241515Z 19014KT 22/15 A2986 RMK A01 T02160146  RH  067%=      5-min Rain = 0
KLBW 241520Z 18013KT 22/15 A2986 RMK A01 T02180148  RH  068%=      5-min Rain = 0
KLBW 241525Z 18011G17KT 22/15 A2986 RMK A01 T02240152  RH  067%=      5-min Rain = 0
KLBW 241530Z 19013KT 22/15 A2986 RMK A01 T02240151  RH  066%=      5-min Rain = 0
KLBW 241535Z 18012G18KT 22/15 A2985 RMK A01 T02230151  RH  067%=      5-min Rain = 0
KLBW 241540Z 20012KT 23/15 A2985 RMK A01 T02260152  RH  066%=      5-min Rain = 0
KLBW 241545Z 20013G19KT 23/15 A2985 RMK A01 T02260153  RH  066%=      5-min Rain = 0
KLBW 241550Z 19011G16KT 23/16 A2985 RMK A01 T02270155  RH  067%=      5-min Rain = 0
KLBW 241555Z 19012G17KT 23/16 A2985 RMK A01 T02310156  RH  066%=      5-min Rain = 0
KLBW 241600Z 19011G16KT 23/16 A2985 RMK A01 T02300156  RH  066%=      5-min Rain = 0
KLBW 241605Z 19010G15KT 23/16 A2985 RMK A01 T02340158  RH  065%=      5-min Rain = 0
KLBW 241610Z 18011G16KT 24/16 A2985 RMK A01 T02350158  RH  065%=      5-min Rain = 0
KLBW 241615Z 18011KT 24/16 A2985 RMK A01 T02350159  RH  065%=      5-min Rain = 0
KLBW 241620Z 19011G16KT 24/16 A2985 RMK A01 T02380160  RH  065%=      5-min Rain = 0
KLBW 241625Z 18012G17KT 24/16 A2985 RMK A01 T02380161  RH  065%=      5-min Rain = 0
KLBW 241630Z 18010KT 24/16 A2985 RMK A01 T02400161  RH  064%=      5-min Rain = 0
KLBW 241635Z 19011G17KT 24/16 A2985 RMK A01 T02390160  RH  064%=      5-min Rain = 0
KLBW 241640Z 17010G15KT 24/16 A2985 RMK A01 T02390161  RH  064%=      5-min Rain = 0.01
KLBW 241645Z 19009G14KT 24/16 A2985 RMK A01 T02410161  RH  064%=      5-min Rain = 0
KLBW 241650Z 16009KT 24/16 A2985 RMK A01 T02420163  RH  064%=      5-min Rain = 0
KLBW 241655Z 18008G14KT 25/17 A2985 RMK A01 T02470166  RH  064%=      5-min Rain = 0
KLBW 241700Z 17009G15KT 25/17 A2985 RMK A01 T02520166  RH  062%=      5-min Rain = 0
KLBW 241705Z 17009KT 25/16 A2985 RMK A01 T02480161  RH  061%=      5-min Rain = 0
KLBW 241710Z 17008KT 25/16 A2985 RMK A01 T02480161  RH  061%=      5-min Rain = 0
KLBW 241715Z 17009KT 25/17 A2985 RMK A01 T02520166  RH  062%=      5-min Rain = 0
KLBW 241720Z 15009KT 26/16 A2985 RMK A01 T02560163  RH  059%=      5-min Rain = 0
KLBW 241725Z 18008G13KT 26/16 A2985 RMK A01 T02550162  RH  059%=      5-min Rain = 0
KLBW 241730Z 18009KT 26/16 A2985 RMK A01 T02590163  RH  058%=      5-min Rain = 0
KLBW 241735Z 16008G13KT 26/16 A2985 RMK A01 T02580161  RH  058%=      5-min Rain = 0
KLBW 241740Z 18008KT 26/16 A2985 RMK A01 T02610163  RH  058%=      5-min Rain = 0
KLBW 241745Z 18008G13KT 26/16 A2985 RMK A01 T02600161  RH  057%=      5-min Rain = 0
KLBW 241750Z 17010KT 26/16 A2984 RMK A01 T02630162  RH  057%=      5-min Rain = 0
KLBW 241755Z 18008KT 26/16 A2984 RMK A01 T02640164  RH  057%=      5-min Rain = 0
KLBW 241800Z 19009KT 27/16 A2984 RMK A01 T02680162  RH  055%=      5-min Rain = 0
KLBW 241805Z 18009KT 27/16 A2984 RMK A01 T02670161  RH  054%=      5-min Rain = 0
KLBW 241810Z 17007G13KT 27/16 A2984 RMK A01 T02710164  RH  055%=      5-min Rain = 0
KLBW 241815Z 15007KT 27/17 A2984 RMK A01 T02710166  RH  055%=      5-min Rain = 0
KLBW 241820Z 19008G13KT 27/17 A2984 RMK A01 T02720165  RH  054%=      5-min Rain = 0
KLBW 241825Z 19009G14KT 27/16 A2983 RMK A01 T02720161  RH  053%=      5-min Rain = 0
KLBW 241830Z 17007KT 27/16 A2983 RMK A01 T02740162  RH  053%=      5-min Rain = 0
KLBW 241835Z 15008G14KT 28/17 A2983 RMK A01 T02760166  RH  054%=      5-min Rain = 0
KLBW 241840Z 16009G14KT 28/17 A2983 RMK A01 T02750166  RH  054%=      5-min Rain = 0
KLBW 241845Z 18008KT 28/16 A2983 RMK A01 T02770160  RH  051%=      5-min Rain = 0
KLBW 241850Z 16009G15KT 28/17 A2983 RMK A01 T02820169  RH  053%=      5-min Rain = 0
KLBW 241855Z 18009KT 28/17 A2982 RMK A01 T02830165  RH  051%=      5-min Rain = 0
KLBW 241900Z 20010G15KT 28/16 A2982 RMK A01 T02840161  RH  050%=      5-min Rain = 0
KLBW 241905Z 17007KT 28/16 A2982 RMK A01 T02820156  RH  048%=      5-min Rain = 0
KLBW 241910Z 17008KT 28/16 A2982 RMK A01 T02830164  RH  051%=      5-min Rain = 0
KLBW 241915Z 15010G15KT 28/16 A2982 RMK A01 T02840162  RH  050%=      5-min Rain = 0
KLBW 241920Z 14009G14KT 29/17 A2982 RMK A01 T02850166  RH  051%=      5-min Rain = 0
KLBW 241925Z 16009G15KT 29/17 A2981 RMK A01 T02890169  RH  051%=      5-min Rain = 0
KLBW 241930Z 16010G15KT 29/16 A2981 RMK A01 T02880159  RH  048%=      5-min Rain = 0
KLBW 241935Z 15009KT 29/16 A2981 RMK A01 T02870163  RH  049%=      5-min Rain = 0
KLBW 241940Z 16008G14KT 29/16 A2981 RMK A01 T02880157  RH  047%=      5-min Rain = 0
KLBW 241945Z 18011G16KT 29/17 A298 RMK A01 T02910169  RH  050%=      5-min Rain = 0
KLBW 241950Z 17010KT 29/16 A298 RMK A01 T02910164  RH  049%=      5-min Rain = 0
KLBW 241955Z 17007G14KT 30/17 A298 RMK A01 T02960171  RH  049%=      5-min Rain = 0
KLBW 242000Z 18012KT 29/16 A298 RMK A01 T02940159  RH  046%=      5-min Rain = 0
KLBW 242005Z 18009G14KT 30/17 A2979 RMK A01 T02960165  RH  047%=      5-min Rain = 0
KLBW 242010Z 17012G19KT 30/16 A2979 RMK A01 T02990161  RH  045%=      5-min Rain = 0
KLBW 242015Z 17008G14KT 30/15 A2979 RMK A01 T02980153  RH  043%=      5-min Rain = 0
KLBW 242020Z 15011G16KT 30/16 A2979 RMK A01 T03010158  RH  044%=      5-min Rain = 0
KLBW 242025Z 17011G17KT 30/16 A2978 RMK A01 T03010157  RH  044%=      5-min Rain = 0
KLBW 242030Z 16010G15KT 30/15 A2978 RMK A01 T03020154  RH  043%=      5-min Rain = 0
KLBW 242035Z 16010G15KT 31/15 A2977 RMK A01 T03050149  RH  041%=      5-min Rain = 0
KLBW 242040Z 15008KT 31/15 A2977 RMK A01 T03050152  RH  041%=      5-min Rain = 0
KLBW 242045Z 17010G15KT 31/15 A2977 RMK A01 T03060150  RH  041%=      5-min Rain = 0
KLBW 242050Z 17009G15KT 31/14 A2977 RMK A01 T03050143  RH  039%=      5-min Rain = 0
KLBW 242055Z 15008KT 31/15 A2976 RMK A01 T03060151  RH  041%=      5-min Rain = 0
KLBW 242100Z 16008G16KT 30/16 A2976 RMK A01 T03040158  RH  043%=      5-min Rain = 0
KLBW 242105Z 15009G14KT 31/15 A2976 RMK A01 T03060148  RH  040%=      5-min Rain = 0
KLBW 242110Z 15008G14KT 31/15 A2975 RMK A01 T03070147  RH  040%=      5-min Rain = 0
KLBW 242115Z 15009G14KT 31/15 A2975 RMK A01 T03100154  RH  041%=      5-min Rain = 0
KLBW 242120Z 15008G13KT 31/16 A2975 RMK A01 T03080157  RH  042%=      5-min Rain = 0
KLBW 242125Z 15008G14KT 31/16 A2974 RMK A01 T03090161  RH  043%=      5-min Rain = 0
KLBW 242130Z 14008G14KT 31/16 A2974 RMK A01 T03070158  RH  043%=      5-min Rain = 0
KLBW 242135Z 14010G15KT 31/16 A2973 RMK A01 T03080156  RH  042%=      5-min Rain = 0
KLBW 242140Z 15007KT 31/15 A2973 RMK A01 T03100150  RH  040%=      5-min Rain = 0
KLBW 242145Z 13009KT 31/16 A2972 RMK A01 T03090160  RH  043%=      5-min Rain = 0
KLBW 242150Z 13011G16KT 31/16 A2972 RMK A01 T03080160  RH  043%=      5-min Rain = 0
KLBW 242155Z 13011G17KT 30/16 A2972 RMK A01 T03040159  RH  044%=      5-min Rain = 0
KLBW 242200Z 13009G14KT 31/16 A2971 RMK A01 T03060159  RH  043%=      5-min Rain = 0
KLBW 242205Z 12010G15KT 31/16 A2971 RMK A01 T03050160  RH  044%=      5-min Rain = 0
KLBW 242210Z 15009G17KT 31/16 A297 RMK A01 T03060158  RH  043%=      5-min Rain = 0
KLBW 242215Z 13008G16KT 30/15 A297 RMK A01 T03030154  RH  042%=      5-min Rain = 0
KLBW 242220Z 13011KT 30/15 A297 RMK A01 T02960147  RH  042%=      5-min Rain = 0
KLBW 242225Z 13009G16KT 29/15 A297 RMK A01 T02920146  RH  043%=      5-min Rain = 0
KLBW 242230Z 13008G14KT 29/15 A297 RMK A01 T02900148  RH  044%=      5-min Rain = 0
KLBW 242235Z 12011KT 29/15 A2969 RMK A01 T02870150  RH  045%=      5-min Rain = 0
KLBW 242240Z 13009G14KT 28/15 A297 RMK A01 T02840149  RH  046%=      5-min Rain = 0
KLBW 242245Z 12010KT 28/15 A297 RMK A01 T02840146  RH  045%=      5-min Rain = 0
KLBW 242250Z 14010KT 28/15 A297 RMK A01 T02830147  RH  045%=      5-min Rain = 0
KLBW 242255Z 15007KT 28/15 A2971 RMK A01 T02820149  RH  046%=      5-min Rain = 0
KLBW 242300Z 22015G29KT 27/14 A2975 RMK A01 T02670144  RH  049%=      5-min Rain = 0
KLBW 242305Z 25020G30KT 21/11 A2976 RMK A01 T02120113  RH  055%=      5-min Rain = 0
KLBW 242310Z 26020G29KT 19/11 A2977 RMK A01 T01860107  RH  062%=      5-min Rain = 0.01
KLBW 242315Z 28010G15KT 17/11 A2976 RMK A01 T01740108  RH  068%=      5-min Rain = 0.11
KLBW 242320Z 30009G15KT 16/11 A2975 RMK A01 T01590111  RH  076%=      5-min Rain = 0.04
KLBW 242325Z 33010G16KT 16/11 A2974 RMK A01 T01600112  RH  076%=      5-min Rain = 0.07
KLBW 242330Z 35014G22KT 18/10 A2972 RMK A01 T01800101  RH  062%=      5-min Rain = 0.03
KLBW 242335Z 01014KT 20/10 A2972 RMK A01 T02000097  RH  053%=      5-min Rain = 0
KLBW 242340Z 01011G16KT 20/11 A297 RMK A01 T01960105  RH  057%=      5-min Rain = 0
KLBW 242345Z 03008KT 20/11 A297 RMK A01 T01980107  RH  058%=      5-min Rain = 0
KLBW 242350Z 05008KT 20/11 A297 RMK A01 T01970111  RH  060%=      5-min Rain = 0
KLBW 242355Z 05015G23KT 20/11 A297 RMK A01 T02000108  RH  057%=      5-min Rain = 0
KLBW 250000Z 05013KT 20/11 A297 RMK A01 T01960107  RH  058%=      5-min Rain = 0
KLBW 250005Z 06014G19KT 20/11 A297 RMK A01 T01970106  RH  057%=      5-min Rain = 0
KLBW 250010Z 07011G17KT 20/11 A297 RMK A01 T01990105  RH  057%=      5-min Rain = 0
KLBW 250015Z 09009KT 20/10 A297 RMK A01 T02010104  RH  055%=      5-min Rain = 0
KLBW 250020Z 11010G15KT 20/11 A297 RMK A01 T02000108  RH  057%=      5-min Rain = 0
KLBW 250025Z 10010KT 20/11 A297 RMK A01 T01990108  RH  058%=      5-min Rain = 0
KLBW 250030Z 08009G14KT 20/11 A297 RMK A01 T01960112  RH  060%=      5-min Rain = 0
KLBW 250035Z 08009KT 20/12 A2969 RMK A01 T01960115  RH  061%=      5-min Rain = 0
KLBW 250040Z 08009G14KT 20/11 A2969 RMK A01 T01990113  RH  060%=      5-min Rain = 0
KLBW 250045Z 06011G17KT 20/11 A2968 RMK A01 T02030106  RH  055%=      5-min Rain = 0
KLBW 250050Z 06012G18KT 20/10 A2967 RMK A01 T02040101  RH  053%=      5-min Rain = 0
KLBW 250055Z 06011KT 21/10 A2966 RMK A01 T02070095  RH  050%=      5-min Rain = 0
KLBW 250100Z 06011G16KT 21/09 A2966 RMK A01 T02090092  RH  049%=      5-min Rain = 0
KLBW 250105Z 08011G16KT 21/09 A2968 RMK A01 T02090090  RH  048%=      5-min Rain = 0
KLBW 250110Z 10011G17KT 21/09 A297 RMK A01 T02100089  RH  047%=      5-min Rain = 0
KLBW 250115Z 09011KT 21/09 A2971 RMK A01 T02100090  RH  048%=      5-min Rain = 0
KLBW 250120Z 09011G16KT 21/09 A2972 RMK A01 T02100091  RH  048%=      5-min Rain = 0
KLBW 250125Z 08011G18KT 21/09 A2971 RMK A01 T02120089  RH  047%=      5-min Rain = 0
KLBW 250130Z 09009KT 21/09 A2971 RMK A01 T02110089  RH  047%=      5-min Rain = 0
KLBW 250135Z 09011G21KT 21/09 A2971 RMK A01 T02130088  RH  046%=      5-min Rain = 0
KLBW 250140Z 10013G22KT 21/09 A2971 RMK A01 T02100093  RH  049%=      5-min Rain = 0
KLBW 250145Z 11011G20KT 21/10 A2971 RMK A01 T02050096  RH  051%=      5-min Rain = 0
KLBW 250150Z 11013G20KT 20/10 A2971 RMK A01 T02020097  RH  053%=      5-min Rain = 0
KLBW 250155Z 11012G17KT 20/10 A2971 RMK A01 T02000098  RH  053%=      5-min Rain = 0
KLBW 250200Z 12011G16KT 20/10 A2971 RMK A01 T01960103  RH  057%=      5-min Rain = 0
KLBW 250205Z 12011G18KT 19/11 A2972 RMK A01 T01920106  RH  060%=      5-min Rain = 0
KLBW 250210Z 12014G20KT 19/11 A2973 RMK A01 T01890108  RH  061%=      5-min Rain = 0
KLBW 250215Z 12010G15KT 19/11 A2974 RMK A01 T01890109  RH  062%=      5-min Rain = 0
KLBW 250220Z 11009G15KT 19/11 A2974 RMK A01 T01880108  RH  062%=      5-min Rain = 0
KLBW 250225Z 10009KT 19/11 A2973 RMK A01 T01880108  RH  062%=      5-min Rain = 0
KLBW 250230Z 11008G15KT 19/11 A2972 RMK A01 T01900105  RH  060%=      5-min Rain = 0
KLBW 250235Z 11006KT 19/11 A2972 RMK A01 T01910105  RH  059%=      5-min Rain = 0
KLBW 250240Z 09004KT 19/11 A2971 RMK A01 T01900108  RH  061%=      5-min Rain = 0
KLBW 250245Z 08004KT 19/11 A2971 RMK A01 T01890110  RH  062%=      5-min Rain = 0
KLBW 250250Z 08005KT 19/11 A297 RMK A01 T01870110  RH  063%=      5-min Rain = 0
KLBW 250255Z 08003KT 19/11 A2969 RMK A01 T01870109  RH  062%=      5-min Rain = 0
KLBW 250300Z 07003KT 19/11 A2969 RMK A01 T01860110  RH  063%=      5-min Rain = 0
KLBW 250305Z 10004KT 19/11 A2969 RMK A01 T01850110  RH  064%=      5-min Rain = 0
KLBW 250310Z 10004KT 18/11 A297 RMK A01 T01840112  RH  065%=      5-min Rain = 0
KLBW 250315Z 07004KT 18/11 A297 RMK A01 T01830114  RH  066%=      5-min Rain = 0
KLBW 250320Z 07004KT 18/11 A297 RMK A01 T01820114  RH  067%=      5-min Rain = 0
KLBW 250325Z 07004KT 18/11 A297 RMK A01 T01820113  RH  066%=      5-min Rain = 0
KLBW 250330Z 07005KT 18/11 A297 RMK A01 T01840113  RH  065%=      5-min Rain = 0
KLBW 250335Z 07006KT 19/11 A297 RMK A01 T01850113  RH  065%=      5-min Rain = 0
KLBW 250340Z 11005KT 19/11 A2971 RMK A01 T01850112  RH  065%=      5-min Rain = 0
KLBW 250345Z 11005KT 18/11 A2971 RMK A01 T01830114  RH  066%=      5-min Rain = 0
KLBW 250350Z 11006KT 18/12 A2971 RMK A01 T01820115  RH  067%=      5-min Rain = 0
KLBW 250355Z 08007KT 18/12 A2971 RMK A01 T01820116  RH  068%=      5-min Rain = 0
KLBW 250400Z 09006KT 18/12 A2972 RMK A01 T01820115  RH  067%=      5-min Rain = 0
KLBW 250405Z 10007KT 18/12 A2973 RMK A01 T01830116  RH  068%=      5-min Rain = 0
KLBW 250410Z 09008KT 18/12 A2974 RMK A01 T01820117  RH  069%=      5-min Rain = 0
KLBW 250415Z 09007KT 18/12 A2975 RMK A01 T01800119  RH  070%=      5-min Rain = 0
KLBW 250420Z 10008KT 18/12 A2975 RMK A01 T01790120  RH  071%=      5-min Rain = 0
KLBW 250425Z 11009G16KT 18/12 A2976 RMK A01 T01780122  RH  072%=      5-min Rain = 0
KLBW 250430Z 13009G14KT 18/12 A2977 RMK A01 T01770123  RH  073%=      5-min Rain = 0
KLBW 250435Z 14010KT 17/12 A2978 RMK A01 T01730122  RH  075%=      5-min Rain = 0
KLBW 250440Z 13008KT 17/12 A2978 RMK A01 T01700121  RH  076%=      5-min Rain = 0
KLBW 250445Z 13009G15KT 17/12 A2979 RMK A01 T01690120  RH  076%=      5-min Rain = 0
KLBW 250450Z 13008KT 17/12 A2981 RMK A01 T01680120  RH  076%=      5-min Rain = 0
KLBW 250455Z 13012G17KT 17/12 A2981 RMK A01 T01680119  RH  076%=      5-min Rain = 0

Page generated in 0.0092 seconds.